Time;durP1;ratioP1;P1;durP2;ratioP2;P2;SDS_P1;SDS_P2;PMS_P1;PMS_P2;Temp;Humidity;BMP_temperature;BMP_pressure;BME280_temperature;BME280_humidity;BME280_pressure;Samples;Min_cycle;Max_cycle;Signal;HPM_P1;HPM_P2
2023/08/02 00:02:04;;;;;;;3.50;0.77;;;;;;;16.07;92.14;99080.22;5025711;28;20180;-84
2023/08/02 00:04:29;;;;;;;0.83;0.50;;;;;;;16.05;92.35;99085.31;5017103;28;20204;-86
2023/08/02 00:06:54;;;;;;;0.00;0.00;;;;;;;16.09;92.33;99085.34;5008120;28;20184;-86
2023/08/02 00:09:20;;;;;;;0.00;0.00;;;;;;;16.04;92.81;99086.47;5006835;28;20635;-86
2023/08/02 00:11:45;;;;;;;0.10;0.10;;;;;;;16.03;93.28;99102.22;5013372;28;20200;-86
2023/08/02 00:14:10;;;;;;;0.40;0.40;;;;;;;15.98;93.27;99091.56;4995423;28;20222;-86
2023/08/02 00:16:35;;;;;;;0.67;0.27;;;;;;;16.06;93.34;99098.72;5008662;28;20190;-85
2023/08/02 00:19:02;;;;;;;0.00;0.00;;;;;;;16.10;93.14;99096.00;5012350;28;20193;-86
2023/08/02 00:21:27;;;;;;;0.00;0.00;;;;;;;16.07;93.32;99088.50;5009932;28;20179;-85
2023/08/02 00:23:53;;;;;;;0.83;0.83;;;;;;;15.96;93.12;99082.09;5026837;28;20200;-85
2023/08/02 00:26:18;;;;;;;1.33;1.23;;;;;;;15.98;93.74;99090.78;5027546;28;20180;-85
2023/08/02 00:28:43;;;;;;;0.00;0.00;;;;;;;15.94;93.65;99079.72;5025984;28;20601;-87
2023/08/02 00:31:08;;;;;;;1.27;1.13;;;;;;;15.96;93.27;99088.41;5025583;28;20384;-86
2023/08/02 00:33:34;;;;;;;0.10;0.10;;;;;;;15.99;93.39;99084.88;5027078;28;20205;-86
2023/08/02 00:35:59;;;;;;;0.20;0.20;;;;;;;15.94;93.22;99084.44;5033257;28;20314;-85
2023/08/02 00:38:24;;;;;;;2.80;1.33;;;;;;;16.00;92.80;99072.69;5011446;28;20658;-85
2023/08/02 00:40:50;;;;;;;0.10;0.10;;;;;;;15.98;92.56;99086.06;5010414;28;20238;-85
2023/08/02 00:43:15;;;;;;;0.53;0.53;;;;;;;16.01;92.31;99071.50;5003825;28;20661;-86
2023/08/02 00:45:40;;;;;;;0.10;0.10;;;;;;;16.13;92.01;99083.41;5023055;28;20194;-86
2023/08/02 00:48:06;;;;;;;0.03;0.03;;;;;;;16.07;91.65;99071.97;5041004;28;20227;-86
2023/08/02 00:50:33;;;;;;;1.07;0.73;;;;;;;16.04;91.86;99081.75;5033421;28;20225;-87
2023/08/02 00:52:59;;;;;;;0.50;0.50;;;;;;;15.91;92.06;99077.75;5040759;28;20179;-86
2023/08/02 00:55:24;;;;;;;0.03;0.00;;;;;;;16.01;91.82;99074.25;5032769;28;20584;-86
2023/08/02 00:57:50;;;;;;;1.03;0.90;;;;;;;15.97;91.98;99067.16;5017853;28;20203;-85
2023/08/02 01:00:16;;;;;;;0.47;0.47;;;;;;;16.03;91.84;99068.38;5011594;28;20219;-86
2023/08/02 01:02:41;;;;;;;0.00;0.00;;;;;;;16.00;91.65;99067.19;5032112;28;20204;-84
2023/08/02 01:05:06;;;;;;;0.53;0.53;;;;;;;15.92;91.74;99060.03;5025244;28;20627;-86
2023/08/02 01:07:41;;;;;;;0.00;0.00;;;;;;;16.06;91.67;99065.66;5013005;28;20187;-85
2023/08/02 01:10:19;;;;;;;0.50;0.50;;;;;;;16.04;91.40;99061.69;5023712;28;20240;-85
2023/08/02 01:12:46;;;;;;;0.30;0.30;;;;;;;16.10;91.39;99054.66;5011491;28;20184;-85
2023/08/02 01:15:14;;;;;;;0.77;0.50;;;;;;;15.96;91.34;99049.03;5009791;28;20215;-86
2023/08/02 01:17:41;;;;;;;0.07;0.07;;;;;;;15.95;91.65;99042.75;5010960;28;20203;-85
2023/08/02 01:20:07;;;;;;;0.00;0.00;;;;;;;15.96;91.56;99044.31;5019962;28;20180;-85
2023/08/02 01:22:34;;;;;;;0.27;0.27;;;;;;;15.97;91.27;99042.34;5027555;28;20180;-85
2023/08/02 01:24:59;;;;;;;1.17;1.17;;;;;;;15.96;91.74;99036.06;5010825;28;20678;-85
2023/08/02 01:27:34;;;;;;;0.77;0.77;;;;;;;15.93;91.71;99034.06;5027091;28;20191;-86
2023/08/02 01:30:01;;;;;;;6.43;0.47;;;;;;;15.90;92.09;99039.53;5007028;28;20206;-85
2023/08/02 01:32:27;;;;;;;1.47;0.90;;;;;;;15.86;91.97;99034.00;5024831;28;20760;-85
2023/08/02 01:34:53;;;;;;;1.23;1.17;;;;;;;15.91;91.80;99030.91;5016890;28;20224;-85
2023/08/02 01:37:18;;;;;;;0.37;0.37;;;;;;;15.89;92.20;99033.22;5015829;28;20274;-84
2023/08/02 01:39:44;;;;;;;0.83;0.83;;;;;;;15.86;92.64;99022.97;5002578;28;20238;-85
2023/08/02 01:42:13;;;;;;;0.67;0.40;;;;;;;15.83;92.80;99026.50;5028127;28;20184;-84
2023/08/02 01:44:38;;;;;;;4.17;0.87;;;;;;;15.88;92.67;99028.91;5006154;28;20208;-86
2023/08/02 01:47:04;;;;;;;1.40;0.17;;;;;;;15.89;92.63;99019.47;4998490;28;20185;-84
2023/08/02 01:49:29;;;;;;;0.90;0.90;;;;;;;15.86;92.50;99025.75;5006027;28;20283;-84
2023/08/02 01:51:54;;;;;;;7.10;1.20;;;;;;;15.81;93.25;99009.56;5020912;28;20203;-84
2023/08/02 01:54:20;;;;;;;1.20;1.10;;;;;;;15.81;93.34;99017.84;5026753;28;20205;-85
2023/08/02 01:56:45;;;;;;;4.03;1.27;;;;;;;15.79;93.21;99014.69;5005315;28;20184;-84
2023/08/02 01:59:12;;;;;;;0.27;0.23;;;;;;;15.81;93.25;99017.84;5023006;28;20256;-85
2023/08/02 02:01:37;;;;;;;1.93;1.70;;;;;;;15.76;93.29;99013.44;5006299;28;20187;-85
2023/08/02 02:04:03;;;;;;;0.53;0.27;;;;;;;15.79;93.28;99009.16;5006384;28;20204;-85
2023/08/02 02:06:28;;;;;;;0.13;0.13;;;;;;;15.87;92.75;99007.25;5017015;28;20177;-85
2023/08/02 02:08:53;;;;;;;26.70;1.10;;;;;;;15.86;93.00;99002.91;5026687;28;20191;-84
2023/08/02 02:11:18;;;;;;;0.67;0.67;;;;;;;15.81;92.52;98992.25;5018899;28;20287;-86
2023/08/02 02:13:44;;;;;;;1.63;1.60;;;;;;;15.88;92.81;98992.31;5009724;28;20215;-86
2023/08/02 02:16:09;;;;;;;1.17;1.07;;;;;;;15.85;92.34;98993.06;5009572;28;20329;-86
2023/08/02 02:18:34;;;;;;;0.37;0.37;;;;;;;15.82;92.11;98988.34;5006720;28;20188;-84
2023/08/02 02:20:59;;;;;;;1.23;1.13;;;;;;;15.77;92.30;98989.50;5006182;28;20626;-84
2023/08/02 02:23:25;;;;;;;4.77;1.20;;;;;;;15.70;92.48;98989.41;4997876;28;20207;-85
2023/08/02 02:25:51;;;;;;;1.73;1.00;;;;;;;15.67;92.20;98988.22;5011138;28;20183;-83
2023/08/02 02:28:19;;;;;;;0.87;0.50;;;;;;;15.68;92.29;98994.53;5009078;28;20184;-82
2023/08/02 02:30:44;;;;;;;0.20;0.20;;;;;;;15.62;92.78;98998.78;5009870;28;20206;-85
2023/08/02 02:33:10;;;;;;;0.20;0.20;;;;;;;15.53;92.90;98995.53;5027556;28;20267;-85
2023/08/02 02:35:35;;;;;;;0.43;0.43;;;;;;;15.52;93.23;98989.25;5026129;28;20258;-84
2023/08/02 02:38:00;;;;;;;0.10;0.10;;;;;;;15.50;93.50;98999.84;5002728;28;20279;-85
2023/08/02 02:40:26;;;;;;;3.93;0.93;;;;;;;15.36;94.18;99000.50;5024973;28;20187;-85
2023/08/02 02:42:51;;;;;;;0.63;0.43;;;;;;;15.31;95.08;99000.84;5029779;28;20180;-84
2023/08/02 02:45:16;;;;;;;1.50;1.37;;;;;;;15.28;95.30;99004.34;5031529;28;20755;-85
2023/08/02 02:47:41;;;;;;;0.20;0.17;;;;;;;15.30;95.64;99009.47;5001809;28;20190;-85
2023/08/02 02:50:07;;;;;;;0.30;0.30;;;;;;;15.23;96.00;99007.44;5010399;28;20172;-85
2023/08/02 02:52:33;;;;;;;0.57;0.57;;;;;;;15.10;96.87;99019.88;5008552;28;20204;-85
2023/08/02 02:54:58;;;;;;;0.20;0.20;;;;;;;15.10;97.35;99017.94;5021027;28;20207;-86
2023/08/02 02:57:23;;;;;;;0.00;0.00;;;;;;;15.17;97.28;99014.44;5007647;28;20281;-86
2023/08/02 02:59:48;;;;;;;0.50;0.40;;;;;;;15.15;97.54;99019.53;5009733;28;20191;-85
2023/08/02 03:02:14;;;;;;;1.63;0.87;;;;;;;14.98;98.11;99009.13;5008521;28;20203;-85
2023/08/02 03:04:39;;;;;;;0.27;0.27;;;;;;;14.92;98.90;99016.16;5023807;28;20204;-84
2023/08/02 03:07:05;;;;;;;0.30;0.20;;;;;;;14.89;99.26;99018.47;4996508;28;20726;-85
2023/08/02 03:09:30;;;;;;;0.27;0.27;;;;;;;14.75;100.00;99012.78;5025217;28;20184;-85
2023/08/02 03:11:55;;;;;;;0.70;0.70;;;;;;;14.71;100.00;99020.22;5008746;28;20204;-85
2023/08/02 03:14:21;;;;;;;1.00;0.90;;;;;;;14.73;100.00;99015.13;5015991;28;20289;-85
2023/08/02 03:16:46;;;;;;;2.30;0.53;;;;;;;14.75;100.00;99012.78;5001835;28;20190;-85
2023/08/02 03:19:12;;;;;;;1.07;1.07;;;;;;;14.65;100.00;99009.94;5008989;28;20189;-85
2023/08/02 03:21:38;;;;;;;0.43;0.43;;;;;;;14.69;100.00;99010.75;5012677;28;20199;-85
2023/08/02 03:24:04;;;;;;;0.80;0.80;;;;;;;14.66;100.00;99004.06;5021420;28;20642;-85
2023/08/02 03:26:30;;;;;;;9.37;1.90;;;;;;;14.57;100.00;99009.03;5026151;28;20649;-85
2023/08/02 03:28:55;;;;;;;0.10;0.10;;;;;;;14.68;100.00;99012.72;5008410;28;20186;-85
2023/08/02 03:31:20;;;;;;;0.80;0.80;;;;;;;14.70;100.00;99012.34;5025976;28;20228;-85
2023/08/02 03:33:46;;;;;;;0.53;0.53;;;;;;;14.70;100.00;99001.34;5003873;28;20679;-85
2023/08/02 03:36:11;;;;;;;2.00;1.47;;;;;;;14.67;100.00;99002.88;5004891;28;20245;-85
2023/08/02 03:38:36;;;;;;;0.83;0.50;;;;;;;14.76;100.00;99010.84;5007194;28;20195;-85
2023/08/02 03:41:02;;;;;;;0.70;0.70;;;;;;;14.69;100.00;99006.03;5015751;28;20180;-86
2023/08/02 03:43:27;;;;;;;4.40;1.90;;;;;;;14.73;100.00;99006.09;5023034;28;20738;-85
2023/08/02 03:45:52;;;;;;;9.33;0.80;;;;;;;14.71;100.00;99014.72;5019194;28;20266;-85
2023/08/02 03:48:17;;;;;;;0.87;0.87;;;;;;;14.72;100.00;99005.28;5025321;28;20194;-85
2023/08/02 03:50:43;;;;;;;1.87;1.67;;;;;;;14.70;100.00;99004.09;5000366;28;20290;-85
2023/08/02 03:53:08;;;;;;;1.03;0.80;;;;;;;14.70;100.00;98995.84;5000327;28;20191;-85
2023/08/02 03:55:34;;;;;;;1.20;0.90;;;;;;;14.74;100.00;98994.72;5004491;28;20231;-85
2023/08/02 03:57:59;;;;;;;0.93;0.93;;;;;;;14.70;100.00;98988.38;5020277;28;20211;-85
2023/08/02 04:00:24;;;;;;;1.57;1.47;;;;;;;14.70;100.00;98976.59;5016005;28;20263;-86
2023/08/02 04:02:50;;;;;;;0.60;0.60;;;;;;;14.67;100.00;98971.84;5018390;28;20584;-85
2023/08/02 04:05:15;;;;;;;1.63;1.53;;;;;;;14.68;100.00;98970.69;5007455;28;20200;-85
2023/08/02 04:07:40;;;;;;;2.00;1.90;;;;;;;14.75;100.00;98976.25;5025254;28;20183;-85
2023/08/02 04:10:06;;;;;;;1.20;1.10;;;;;;;14.72;100.00;98971.50;5008122;28;20688;-85
2023/08/02 04:12:32;;;;;;;1.03;0.50;;;;;;;14.83;100.00;98964.97;5015638;28;20249;-84
2023/08/02 04:14:57;;;;;;;0.10;0.10;;;;;;;14.88;100.00;98961.09;5024998;28;20585;-85
2023/08/02 04:17:25;;;;;;;1.60;1.50;;;;;;;14.85;100.00;98962.63;5023928;28;20179;-84
2023/08/02 04:19:50;;;;;;;0.40;0.40;;;;;;;14.94;99.90;98962.34;5025972;28;20188;-85
2023/08/02 04:22:15;;;;;;;0.00;0.00;;;;;;;14.95;99.60;98957.63;5007748;28;20263;-85
2023/08/02 04:24:41;;;;;;;0.40;0.37;;;;;;;15.03;99.52;98971.06;5025840;28;20254;-85
2023/08/02 04:27:06;;;;;;;1.47;0.47;;;;;;;15.02;99.77;98966.75;5006980;28;20186;-85
2023/08/02 04:29:31;;;;;;;21.13;1.60;;;;;;;15.04;99.35;98974.59;5029185;28;20180;-84
2023/08/02 04:31:56;;;;;;;1.27;1.17;;;;;;;15.12;99.72;98974.31;5023318;28;20200;-85
2023/08/02 04:34:22;;;;;;;0.77;0.77;;;;;;;15.16;99.02;98969.63;5025251;28;20201;-85
2023/08/02 04:36:47;;;;;;;0.37;0.37;;;;;;;15.26;98.68;98970.91;5025238;28;20615;-85
2023/08/02 04:39:15;;;;;;;0.10;0.10;;;;;;;15.27;98.48;98955.19;5015176;28;20191;-84
2023/08/02 04:41:40;;;;;;;1.00;1.00;;;;;;;15.26;98.38;98945.38;5021632;28;20180;-84
2023/08/02 04:44:05;;;;;;;0.07;0.07;;;;;;;15.31;97.94;98945.78;5023403;28;20724;-84
2023/08/02 04:46:30;;;;;;;0.20;0.20;;;;;;;15.36;97.38;98945.47;5034380;28;20225;-85
2023/08/02 04:48:56;;;;;;;0.30;0.30;;;;;;;15.37;97.21;98949.00;5007222;28;20686;-85
2023/08/02 04:51:21;;;;;;;0.27;0.27;;;;;;;15.39;97.36;98941.16;5000241;28;20250;-85
2023/08/02 04:53:49;;;;;;;0.10;0.10;;;;;;;15.43;97.29;98939.22;5011739;28;20200;-85
2023/08/02 04:56:16;;;;;;;0.23;0.23;;;;;;;15.52;97.15;98936.16;5019004;28;20267;-85
2023/08/02 04:58:41;;;;;;;0.00;0.00;;;;;;;15.66;96.32;98930.78;5028935;28;20219;-85
2023/08/02 05:01:07;;;;;;;0.00;0.00;;;;;;;15.72;95.63;98924.53;5011848;28;20180;-84
2023/08/02 05:03:33;;;;;;;1.27;1.10;;;;;;;15.58;96.16;98921.66;5001085;28;20196;-85
2023/08/02 05:06:00;;;;;;;0.50;0.50;;;;;;;15.69;95.86;98913.50;5030480;28;20180;-84
2023/08/02 05:08:25;;;;;;;0.60;0.53;;;;;;;15.63;95.49;98904.81;5018118;28;20183;-85
2023/08/02 05:10:50;;;;;;;0.27;0.27;;;;;;;15.75;95.19;98910.00;5027931;28;20274;-83
2023/08/02 05:13:16;;;;;;;2.23;0.33;;;;;;;15.70;95.44;98915.06;5002702;28;20566;-84
2023/08/02 05:15:41;;;;;;;0.60;0.50;;;;;;;15.76;95.21;98908.81;5015897;28;20632;-85
2023/08/02 05:18:06;;;;;;;0.00;0.00;;;;;;;15.88;94.56;98915.19;5015223;28;20184;-85
2023/08/02 05:20:33;;;;;;;0.67;0.67;;;;;;;15.88;95.06;98910.47;5011662;28;20179;-85
2023/08/02 05:22:59;;;;;;;0.00;0.00;;;;;;;15.91;94.86;98920.72;5011085;28;20601;-83
2023/08/02 05:25:32;;;;;;;0.23;0.23;;;;;;;15.79;95.22;98921.03;5029296;28;20211;-85
2023/08/02 05:27:58;;;;;;;0.50;0.50;;;;;;;15.79;95.50;98914.75;5011690;28;20690;-85
2023/08/02 05:30:23;;;;;;;2.33;1.03;;;;;;;15.81;95.60;98910.44;5026889;28;20266;-85
2023/08/02 05:32:49;;;;;;;0.00;0.00;;;;;;;15.77;96.09;98915.94;5030152;28;20211;-86
2023/08/02 05:35:14;;;;;;;0.00;0.00;;;;;;;15.79;96.66;98915.53;5013835;28;20255;-85
2023/08/02 05:37:40;;;;;;;0.00;0.00;;;;;;;15.67;96.51;98907.59;5022062;28;20176;-85
2023/08/02 05:40:06;;;;;;;0.33;0.33;;;;;;;15.68;97.00;98918.22;5004642;28;20176;-84
2023/08/02 05:42:31;;;;;;;0.10;0.10;;;;;;;15.67;96.94;98926.84;5009120;28;20172;-85
2023/08/02 05:44:56;;;;;;;1.10;0.37;;;;;;;15.61;96.77;98922.88;5009928;28;20267;-85
2023/08/02 05:47:21;;;;;;;0.00;0.00;;;;;;;15.57;97.42;98922.81;5018852;28;20202;-85
2023/08/02 05:49:48;;;;;;;2.10;2.00;;;;;;;15.50;97.40;98916.47;5028383;28;20266;-85
2023/08/02 05:52:14;;;;;;;0.10;0.10;;;;;;;15.50;98.52;98914.53;5036159;28;20743;-85
2023/08/02 05:54:39;;;;;;;0.00;0.00;;;;;;;15.62;98.80;98913.44;5007278;28;20196;-85
2023/08/02 05:57:06;;;;;;;0.60;0.60;;;;;;;15.62;98.96;98902.41;5031704;28;20547;-86
2023/08/02 05:59:31;;;;;;;0.50;0.50;;;;;;;15.61;98.49;98892.59;5019337;28;20259;-86
2023/08/02 06:01:56;;;;;;;0.20;0.20;;;;;;;15.71;98.44;98895.41;5029757;28;20211;-85
2023/08/02 06:04:21;;;;;;;0.30;0.30;;;;;;;15.81;98.52;98876.59;5025108;28;20200;-85
2023/08/02 06:06:47;;;;;;;0.93;0.93;;;;;;;16.10;98.50;98885.81;5027855;28;20180;-85
2023/08/02 06:09:13;;;;;;;0.43;0.43;;;;;;;16.06;96.38;98866.50;5002198;28;20818;-85
2023/08/02 06:11:38;;;;;;;1.40;1.00;;;;;;;16.11;94.80;98848.81;5009806;28;20203;-84
2023/08/02 06:14:03;;;;;;;0.97;0.77;;;;;;;16.26;94.14;98864.22;5027515;28;20204;-85
2023/08/02 06:16:29;;;;;;;1.83;0.90;;;;;;;16.26;94.03;98855.94;5016008;28;20185;-85
2023/08/02 06:18:54;;;;;;;0.27;0.27;;;;;;;16.27;93.28;98850.03;5013830;28;20651;-84
2023/08/02 06:21:20;;;;;;;0.40;0.40;;;;;;;16.35;93.36;98848.13;5023614;28;20176;-84
2023/08/02 06:23:45;;;;;;;0.60;0.33;;;;;;;16.46;93.58;98864.66;5008069;28;20281;-84
2023/08/02 06:26:10;;;;;;;0.80;0.67;;;;;;;16.54;92.43;98849.72;5016849;28;20198;-85
2023/08/02 06:28:35;;;;;;;0.30;0.30;;;;;;;16.54;92.61;98847.78;5026844;28;20188;-85
2023/08/02 06:31:01;;;;;;;0.00;0.00;;;;;;;16.54;92.32;98841.47;5009491;28;20298;-85
2023/08/02 06:33:26;;;;;;;0.70;0.70;;;;;;;16.45;92.62;98841.81;5033976;28;20278;-86
2023/08/02 06:35:51;;;;;;;0.57;0.50;;;;;;;16.46;92.76;98824.09;5005745;28;20184;-85
2023/08/02 06:38:17;;;;;;;0.00;0.00;;;;;;;16.64;92.50;98841.50;5023646;28;20268;-84
2023/08/02 06:40:42;;;;;;;0.27;0.27;;;;;;;16.75;92.62;98851.75;5027739;28;20183;-85
2023/08/02 06:43:07;;;;;;;0.00;0.00;;;;;;;16.94;91.78;98856.94;5011500;28;20858;-85
2023/08/02 06:45:32;;;;;;;0.43;0.43;;;;;;;17.08;90.93;98853.41;5027205;28;20268;-86
2023/08/02 06:47:58;;;;;;;0.70;0.70;;;;;;;17.20;90.46;98839.19;5010191;28;20219;-85
2023/08/02 06:50:23;;;;;;;0.67;0.67;;;;;;;17.44;90.99;98848.63;5026952;28;20187;-85
2023/08/02 06:52:48;;;;;;;0.00;0.00;;;;;;;17.53;89.51;98841.53;5006769;28;20208;-85
2023/08/02 06:55:14;;;;;;;2.10;0.70;;;;;;;17.49;89.99;98828.88;4997866;28;20211;-85
2023/08/02 06:57:39;;;;;;;1.17;1.00;;;;;;;17.43;88.17;98820.22;5011082;28;20267;-85
2023/08/02 07:00:05;;;;;;;0.33;0.33;;;;;;;17.56;88.05;98823.38;5028031;28;20180;-84
2023/08/02 07:02:30;;;;;;;0.10;0.10;;;;;;;17.54;87.96;98817.47;5010026;28;20173;-85
2023/08/02 07:04:56;;;;;;;0.00;0.00;;;;;;;17.41;88.51;98822.59;5026553;28;20192;-85
2023/08/02 07:07:21;;;;;;;0.50;0.47;;;;;;;17.47;88.83;98817.47;5017206;28;20584;-85
2023/08/02 07:09:48;;;;;;;0.20;0.20;;;;;;;17.47;88.63;98812.72;5004164;28;20187;-84
2023/08/02 07:12:13;;;;;;;0.00;0.00;;;;;;;17.50;89.43;98805.63;5019667;28;20844;-84
2023/08/02 07:14:39;;;;;;;0.00;0.00;;;;;;;17.59;89.03;98800.47;5010407;28;20204;-85
2023/08/02 07:17:05;;;;;;;0.93;0.50;;;;;;;17.62;89.17;98793.34;5009721;28;20172;-86
2023/08/02 07:19:30;;;;;;;0.00;0.00;;;;;;;17.66;89.04;98792.19;5008788;28;20235;-86
2023/08/02 07:21:55;;;;;;;0.40;0.40;;;;;;;17.68;88.85;98772.44;5027047;28;20180;-85
2023/08/02 07:24:20;;;;;;;0.00;0.00;;;;;;;17.80;88.36;98783.88;5008731;28;20231;-86
2023/08/02 07:26:46;;;;;;;0.30;0.10;;;;;;;18.05;87.82;98783.75;5019169;28;20181;-87
2023/08/02 07:29:11;;;;;;;0.90;0.90;;;;;;;17.95;86.93;98759.75;5003730;28;20199;-85
2023/08/02 07:31:36;;;;;;;0.00;0.00;;;;;;;17.94;86.46;98766.47;5006384;28;20204;-85
2023/08/02 07:34:01;;;;;;;0.00;0.00;;;;;;;18.01;86.39;98779.44;5007154;28;20698;-84
2023/08/02 07:36:27;;;;;;;0.00;0.00;;;;;;;18.07;87.15;98786.09;5007188;28;20184;-85
2023/08/02 07:38:52;;;;;;;0.00;0.00;;;;;;;18.18;87.04;98783.31;5010662;28;20173;-85
2023/08/02 07:41:17;;;;;;;0.00;0.00;;;;;;;18.33;86.82;98791.09;5021267;28;20585;-84
2023/08/02 07:43:43;;;;;;;0.10;0.10;;;;;;;18.35;86.83;98785.97;5026161;28;20200;-85
2023/08/02 07:46:19;;;;;;;0.50;0.50;;;;;;;18.38;86.14;98774.09;5014927;28;20202;-83
2023/08/02 07:48:44;;;;;;;0.20;0.20;;;;;;;18.38;86.18;98774.09;5003889;28;20186;-85
2023/08/02 07:51:09;;;;;;;0.10;0.10;;;;;;;18.43;86.14;98770.91;5030351;28;20934;-85
2023/08/02 07:53:35;;;;;;;5.20;0.50;;;;;;;18.51;85.07;98754.25;5021531;28;20253;-85
2023/08/02 07:56:03;;;;;;;0.20;0.00;;;;;;;18.78;84.55;98774.63;5030296;28;20263;-85
2023/08/02 07:58:29;;;;;;;0.00;0.00;;;;;;;19.00;84.29;98773.28;5010080;28;20210;-85
2023/08/02 08:00:54;;;;;;;0.10;0.10;;;;;;;19.09;83.33;98756.19;5019721;28;20649;-85
2023/08/02 08:03:19;;;;;;;0.20;0.20;;;;;;;19.34;81.98;98758.72;5018303;28;20267;-85
2023/08/02 08:05:47;;;;;;;0.50;0.50;;;;;;;19.31;81.53;98746.47;5011272;28;20175;-85
2023/08/02 08:08:13;;;;;;;0.50;0.50;;;;;;;19.52;81.34;98745.44;5011729;28;20215;-84
2023/08/02 08:10:38;;;;;;;0.00;0.00;;;;;;;19.68;80.58;98738.59;5015785;28;20176;-85
2023/08/02 08:13:04;;;;;;;0.43;0.40;;;;;;;19.57;79.83;98717.34;5019130;28;20232;-85
2023/08/02 08:15:29;;;;;;;0.00;0.00;;;;;;;19.47;80.22;98715.44;5034277;28;20184;-85
2023/08/02 08:17:54;;;;;;;4.00;1.10;;;;;;;19.50;81.00;98709.06;5028077;28;20237;-85
2023/08/02 08:20:19;;;;;;;4.47;1.63;;;;;;;19.16;80.79;98716.56;5016273;28;20563;-84
2023/08/02 08:22:45;;;;;;;3.17;0.30;;;;;;;19.05;81.73;98711.13;5012442;28;20187;-85
2023/08/02 08:25:10;;;;;;;0.00;0.00;;;;;;;19.14;82.25;98705.91;5031313;28;20208;-87
2023/08/02 08:27:36;;;;;;;0.20;0.20;;;;;;;19.35;82.86;98709.63;5020087;28;20214;-86
2023/08/02 08:30:03;;;;;;;0.10;0.00;;;;;;;19.48;82.73;98710.69;5017693;28;20180;-84
2023/08/02 08:32:29;;;;;;;0.80;0.80;;;;;;;19.37;81.70;98687.84;5034042;28;20277;-86
2023/08/02 08:34:54;;;;;;;0.00;0.00;;;;;;;19.61;81.76;98709.75;5029336;28;20196;-86
2023/08/02 08:37:20;;;;;;;0.60;0.50;;;;;;;19.61;81.53;98701.44;5010555;28;20254;-86
2023/08/02 08:39:45;;;;;;;0.97;0.73;;;;;;;19.37;80.95;98694.19;5018812;28;20654;-86
2023/08/02 08:42:12;;;;;;;0.00;0.00;;;;;;;19.40;82.17;98696.13;5016642;28;20654;-86
2023/08/02 08:44:38;;;;;;;0.13;0.13;;;;;;;19.52;81.53;98684.50;5008460;28;20210;-86
2023/08/02 08:47:06;;;;;;;0.50;0.40;;;;;;;19.42;80.98;98679.88;5036619;28;20223;-86
2023/08/02 08:49:31;;;;;;;1.30;1.20;;;;;;;19.47;80.40;98671.13;5010740;28;20198;-85
2023/08/02 08:52:02;;;;;;;0.63;0.63;;;;;;;19.40;80.50;98670.44;5035891;28;20204;-86
2023/08/02 08:54:28;;;;;;;0.20;0.20;;;;;;;19.44;80.84;98671.94;5012654;28;20210;-87
2023/08/02 08:56:55;;;;;;;0.80;0.80;;;;;;;19.47;80.56;98657.25;5015593;28;20203;-87
2023/08/02 08:59:21;;;;;;;0.00;0.00;;;;;;;19.53;80.47;98663.16;5042302;28;20367;-86
2023/08/02 09:01:46;;;;;;;0.00;0.00;;;;;;;19.52;80.39;98654.03;5011221;28;20184;-86
2023/08/02 09:04:12;;;;;;;0.20;0.20;;;;;;;19.73;80.03;98643.91;5029941;28;20210;-86
2023/08/02 09:06:38;;;;;;;0.00;0.00;;;;;;;19.92;79.36;98640.47;5013942;28;20278;-87
2023/08/02 09:09:03;;;;;;;2.80;1.23;;;;;;;19.61;78.68;98631.41;5004180;28;20255;-85
2023/08/02 09:11:29;;;;;;;0.97;0.57;;;;;;;19.40;79.10;98612.25;5012055;28;20197;-87
2023/08/02 09:14:16;;;;;;;0.57;0.57;;;;;;;19.45;79.60;98618.13;5011705;28;20286;-87
2023/08/02 09:16:57;;;;;;;0.87;0.87;;;;;;;19.26;80.74;98608.47;5022435;28;20180;-86
2023/08/02 09:19:28;;;;;;;9.20;4.70;;;;;;;19.24;80.75;98610.06;5029566;28;20543;-85
2023/08/02 09:22:13;;;;;;;0.30;0.20;;;;;;;19.18;80.89;98603.44;5014017;28;20176;-86
2023/08/02 09:24:40;;;;;;;0.00;0.00;;;;;;;19.06;82.09;98601.97;5013147;28;20207;-86
2023/08/02 09:27:18;;;;;;;0.00;0.00;;;;;;;18.98;82.91;98604.06;5031417;28;20172;-86
2023/08/02 09:29:44;;;;;;;0.00;0.00;;;;;;;18.73;84.59;98596.03;5010525;28;20262;-86
2023/08/02 09:32:10;;;;;;;3.30;0.40;;;;;;;18.75;86.10;98603.13;5035524;28;20195;-85
2023/08/02 09:34:43;;;;;;;0.23;0.23;;;;;;;18.65;89.38;98602.03;5031167;28;20204;-86
2023/08/02 09:37:11;;;;;;;0.00;0.00;;;;;;;18.46;90.96;98591.53;5020906;28;20181;-86
2023/08/02 09:39:37;;;;;;;0.00;0.00;;;;;;;18.47;93.67;98595.88;5016087;28;20198;-86
2023/08/02 09:42:10;;;;;;;0.00;0.00;;;;;;;18.28;97.36;98598.00;5015940;28;20172;-85
2023/08/02 09:44:36;;;;;;;1.10;0.97;;;;;;;18.32;98.48;98587.69;5006765;28;20203;-86
2023/08/02 09:47:11;;;;;;;0.77;0.57;;;;;;;18.47;100.00;98593.09;5013211;28;20191;-87
2023/08/02 09:49:38;;;;;;;1.17;1.17;;;;;;;18.59;100.00;98589.81;5012284;28;20190;-87
2023/08/02 09:52:03;;;;;;;0.00;0.00;;;;;;;18.57;100.00;98578.38;5005909;28;20295;-87
2023/08/02 09:54:30;;;;;;;0.27;0.27;;;;;;;18.60;100.00;98566.50;5010700;28;20223;-87
2023/08/02 09:56:56;;;;;;;2.13;1.27;;;;;;;18.49;100.00;98568.59;5011588;28;20180;-86
2023/08/02 09:59:24;;;;;;;0.40;0.40;;;;;;;18.53;100.00;98563.81;5030243;28;20267;-86
2023/08/02 10:01:49;;;;;;;0.00;0.00;;;;;;;18.44;100.00;98558.75;5036103;28;20203;-86
2023/08/02 10:04:15;;;;;;;2.97;0.53;;;;;;;18.49;100.00;98560.28;5011297;28;20204;-87
2023/08/02 10:06:43;;;;;;;0.00;0.00;;;;;;;18.43;100.00;98551.66;5014462;28;20188;-86
2023/08/02 10:09:11;;;;;;;0.27;0.27;;;;;;;18.54;100.00;98543.25;5014448;28;20207;-86
2023/08/02 10:11:51;;;;;;;0.10;0.00;;;;;;;18.34;100.00;98535.53;5032597;28;20200;-86
2023/08/02 10:14:18;;;;;;;0.27;0.27;;;;;;;18.33;100.00;98536.72;5013892;28;20216;-84
2023/08/02 10:16:44;;;;;;;0.00;0.00;;;;;;;18.39;100.00;98535.09;5032226;28;20195;-86
2023/08/02 10:19:12;;;;;;;1.87;0.90;;;;;;;18.24;100.00;98521.84;5007280;28;20186;-87
2023/08/02 10:21:42;;;;;;;0.53;0.53;;;;;;;18.03;100.00;98515.28;5009738;28;20182;-87
2023/08/02 10:24:09;;;;;;;0.60;0.60;;;;;;;18.03;100.00;98522.81;5031212;28;20269;-84
2023/08/02 10:26:34;;;;;;;0.60;0.60;;;;;;;18.05;100.00;98523.19;5021674;28;20176;-86
2023/08/02 10:29:01;;;;;;;1.03;0.77;;;;;;;18.04;100.00;98511.34;5023535;28;20722;-86
2023/08/02 10:31:27;;;;;;;0.33;0.33;;;;;;;17.99;100.00;98508.25;5003624;28;20219;-86
2023/08/02 10:33:52;;;;;;;20.33;0.33;;;;;;;18.09;100.00;98518.44;5026171;28;20203;-87
2023/08/02 10:36:18;;;;;;;0.53;0.53;;;;;;;18.08;100.00;98506.59;5006842;28;20172;-86
2023/08/02 10:38:43;;;;;;;0.00;0.00;;;;;;;18.01;100.00;98509.41;5020898;28;20247;-86
2023/08/02 10:41:10;;;;;;;0.00;0.00;;;;;;;18.09;100.00;98496.31;5015531;28;20168;-87
2023/08/02 10:43:53;;;;;;;0.00;0.00;;;;;;;18.21;100.00;98501.31;5004647;28;20212;-86
2023/08/02 10:46:25;;;;;;;0.00;0.00;;;;;;;18.29;100.00;98491.75;5011295;28;20187;-87
2023/08/02 10:48:53;;;;;;;1.90;0.37;;;;;;;18.35;100.00;98479.03;5014258;28;20194;-85
2023/08/02 10:51:33;;;;;;;0.30;0.30;;;;;;;18.26;100.00;98462.19;5014955;28;20258;-86
2023/08/02 10:54:21;;;;;;;1.33;1.23;;;;;;;18.37;100.00;98468.38;5010319;28;20205;-85
2023/08/02 10:56:53;;;;;;;0.27;0.27;;;;;;;18.35;100.00;98451.38;5009067;28;20188;-85
2023/08/02 10:59:24;;;;;;;0.20;0.20;;;;;;;18.38;100.00;98450.59;5011316;28;20657;-86
2023/08/02 11:02:00;;;;;;;4.33;1.60;;;;;;;18.41;100.00;98446.22;5011035;28;20204;-89
2023/08/02 11:04:30;;;;;;;0.83;0.57;;;;;;;18.33;100.00;98428.91;5019540;28;20210;-86
2023/08/02 11:07:09;;;;;;;0.97;0.97;;;;;;;18.31;100.00;98433.28;5010713;28;20215;-86
2023/08/02 11:09:34;;;;;;;0.50;0.50;;;;;;;18.28;100.00;98443.19;5028248;28;20228;-86
2023/08/02 11:12:10;;;;;;;0.57;0.53;;;;;;;18.21;100.00;98434.19;5013794;28;20706;-85
2023/08/02 11:14:36;;;;;;;1.00;1.00;;;;;;;18.29;100.00;98430.94;5010155;28;20234;-85
2023/08/02 11:17:01;;;;;;;0.00;0.00;;;;;;;18.21;100.00;98423.13;5006579;28;20184;-83
2023/08/02 11:19:29;;;;;;;0.33;0.33;;;;;;;18.28;100.00;98418.31;5019560;28;20643;-85
2023/08/02 11:21:55;;;;;;;0.10;0.10;;;;;;;18.26;100.00;98414.41;5005897;28;20186;-86
2023/08/02 11:24:21;;;;;;;0.33;0.27;;;;;;;18.32;100.00;98407.97;5012745;28;20203;-87
2023/08/02 11:26:53;;;;;;;0.37;0.37;;;;;;;18.31;100.00;98400.09;5021625;28;20206;-86
2023/08/02 11:29:20;;;;;;;0.23;0.23;;;;;;;18.32;100.00;98388.63;5012257;28;20282;-84